createdAt,value
2017-05-13T00:00:10.281Z,90.44
2017-05-13T00:01:10.264Z,90.63
2017-05-13T00:02:10.246Z,90.44
2017-05-13T00:03:10.222Z,90.44
2017-05-13T00:04:10.198Z,90.25
2017-05-13T00:05:10.179Z,90.44
2017-05-13T00:06:10.156Z,90.63
2017-05-13T00:07:10.134Z,90.44
2017-05-13T00:08:10.116Z,90.25
2017-05-13T00:09:10.092Z,90.44
2017-05-13T00:10:10.070Z,90.92
2017-05-13T00:11:10.054Z,91.02
2017-05-13T00:12:10.044Z,90.63
2017-05-13T00:13:10.046Z,90.82
2017-05-13T00:14:09.999Z,90.53
2017-05-13T00:15:09.977Z,91.2
2017-05-13T00:16:09.956Z,90.92
2017-05-13T00:17:09.923Z,91.3
2017-05-13T00:18:09.904Z,91.3
2017-05-13T00:19:09.879Z,91.2
2017-05-13T00:20:09.865Z,91.02
2017-05-13T00:21:09.886Z,91.2
2017-05-13T00:22:09.830Z,91.2
2017-05-13T00:23:09.792Z,91.3
2017-05-13T00:24:09.774Z,91.02
2017-05-13T00:25:09.758Z,91.3
2017-05-13T00:26:09.741Z,91.39
2017-05-13T00:27:09.768Z,91.3
2017-05-13T00:28:09.702Z,91.02
2017-05-13T00:29:09.674Z,91.2
2017-05-13T00:30:09.653Z,91.2
2017-05-13T00:31:09.635Z,91.2
2017-05-13T00:32:09.611Z,91.3
2017-05-13T00:33:09.589Z,91.02
2017-05-13T00:34:09.564Z,90.92
2017-05-13T00:35:09.247Z,91.2
2017-05-13T00:36:09.517Z,91.2
2017-05-13T00:37:09.506Z,90.82
2017-05-13T00:38:09.476Z,91.02
2017-05-13T00:39:09.460Z,91.02
2017-05-13T00:40:09.439Z,90.82
2017-05-13T00:41:09.415Z,91.02
2017-05-13T00:42:09.399Z,90.96
2017-05-13T00:43:09.371Z,90.77
2017-05-13T00:44:09.354Z,90.87
2017-05-13T00:45:09.375Z,90.87
2017-05-13T00:46:09.353Z,90.63
2017-05-13T00:47:09.306Z,90.44
2017-05-13T00:48:08.969Z,90.34
2017-05-13T00:49:09.256Z,90.77
2017-05-13T00:50:09.233Z,90.73
2017-05-13T00:51:08.913Z,90.87
2017-05-13T00:52:09.186Z,91.06
2017-05-13T00:53:09.165Z,90.87
2017-05-13T00:54:09.142Z,90.82
2017-05-13T00:55:09.123Z,90.82
2017-05-13T00:56:08.803Z,90.63
2017-05-13T00:57:09.080Z,90.82
2017-05-13T00:58:09.110Z,90.92
2017-05-13T00:59:08.750Z,90.82
2017-05-13T01:00:09.030Z,90.73
2017-05-13T01:01:08.998Z,90.73
2017-05-13T01:02:08.981Z,90.63
2017-05-13T01:03:08.957Z,90.77
2017-05-13T01:04:08.930Z,90.63
2017-05-13T01:05:08.609Z,91.02
2017-05-13T01:06:08.887Z,90.87
2017-05-13T01:07:08.868Z,90.87
2017-05-13T01:08:08.846Z,90.77
2017-05-13T01:09:08.879Z,91.02
2017-05-13T01:10:08.803Z,90.34
2017-05-13T01:11:08.485Z,90.25
2017-05-13T01:12:08.461Z,90.48
2017-05-13T01:13:08.744Z,90.53
2017-05-13T01:14:08.723Z,90.3
2017-05-13T01:15:08.703Z,90.48
2017-05-13T01:16:08.683Z,90.67
2017-05-13T01:17:08.662Z,90.48
2017-05-13T01:18:08.634Z,90.3
2017-05-13T01:19:08.616Z,90.3
2017-05-13T01:20:08.596Z,90.25
2017-05-13T01:21:08.577Z,90.44
2017-05-13T01:22:08.558Z,90.73
2017-05-13T01:23:08.531Z,90.63
2017-05-13T01:24:08.511Z,90.34
2017-05-13T01:25:08.487Z,90.53
2017-05-13T01:26:08.472Z,90.92
2017-05-13T01:27:08.147Z,90.82
2017-05-13T01:28:08.430Z,90.82
2017-05-13T01:29:08.409Z,90.73
2017-05-13T01:30:08.382Z,90.73
2017-05-13T01:31:08.365Z,90.63
2017-05-13T01:32:08.339Z,91.02
2017-05-13T01:33:08.318Z,90.73
2017-05-13T01:34:08.293Z,90.92
2017-05-13T01:35:08.279Z,90.92
2017-05-13T01:36:08.254Z,91.39
2017-05-13T01:37:08.235Z,90.92
2017-05-13T01:38:08.220Z,91.2
2017-05-13T01:39:08.193Z,90.92
2017-05-13T01:40:08.172Z,91.2
2017-05-13T01:41:08.148Z,91.3
2017-05-13T01:42:08.127Z,91.02
2017-05-13T01:43:08.114Z,91.39
2017-05-13T01:44:08.089Z,91.59
2017-05-13T01:45:08.064Z,91.39
2017-05-13T01:46:07.743Z,91.39
2017-05-13T01:47:08.021Z,91.68
2017-05-13T01:48:08.003Z,91.49
2017-05-13T01:49:07.982Z,91.59
2017-05-13T01:50:07.656Z,92.16
2017-05-13T01:51:07.936Z,92.25
2017-05-13T01:52:07.954Z,92.35
2017-05-13T01:53:07.900Z,92.35
2017-05-13T01:54:07.872Z,92.02
2017-05-13T01:55:07.860Z,91.88
2017-05-13T01:56:07.834Z,92.16
2017-05-13T01:57:07.819Z,91.88
2017-05-13T01:58:07.789Z,91.64
2017-05-13T01:59:07.771Z,92.16
2017-05-13T02:00:07.450Z,92.02
2017-05-13T02:01:07.723Z,92.21
2017-05-13T02:02:07.704Z,92.21
2017-05-13T02:03:07.681Z,92.25
2017-05-13T02:04:07.666Z,92.02
2017-05-13T02:05:07.637Z,92.02
2017-05-13T02:06:07.625Z,92.11
2017-05-13T02:07:07.599Z,92.21
2017-05-13T02:08:07.573Z,92.02
2017-05-13T02:09:07.561Z,92.3
2017-05-13T02:10:07.541Z,92.5
2017-05-13T02:11:07.512Z,92.45
2017-05-13T02:12:07.488Z,92.21
2017-05-13T02:13:07.467Z,92.21
2017-05-13T02:14:07.451Z,92.4
2017-05-13T02:15:07.123Z,92.4
2017-05-13T02:16:07.404Z,92.21
2017-05-13T02:17:07.383Z,92.4
2017-05-13T02:18:07.363Z,92.4
2017-05-13T02:19:07.348Z,92.4
2017-05-13T02:20:07.321Z,92.21
2017-05-13T02:21:07.301Z,92.02
2017-05-13T02:22:07.280Z,92.59
2017-05-13T02:23:07.262Z,92.79
2017-05-13T02:24:07.238Z,92.97
2017-05-13T02:25:07.215Z,92.88
2017-05-13T02:26:07.196Z,92.59
2017-05-13T02:27:07.173Z,92.88
2017-05-13T02:28:06.843Z,92.5
2017-05-13T02:29:07.127Z,92.5
2017-05-13T02:30:07.112Z,92.88
2017-05-13T02:31:07.088Z,92.5
2017-05-13T02:32:06.759Z,92.3
2017-05-13T02:33:07.040Z,92.5
2017-05-13T02:34:07.022Z,92.79
2017-05-13T02:35:06.997Z,93.16
2017-05-13T02:36:06.982Z,92.5
2017-05-13T02:37:06.657Z,92.21
2017-05-13T02:38:06.933Z,92.69
2017-05-13T02:39:06.914Z,92.79
2017-05-13T02:40:06.890Z,92.88
2017-05-13T02:41:06.870Z,92.88
2017-05-13T02:42:06.935Z,92.69
2017-05-13T02:43:06.829Z,93.16
2017-05-13T02:44:06.804Z,92.88
2017-05-13T02:45:06.782Z,92.79
2017-05-13T02:46:06.758Z,93.07
2017-05-13T02:47:06.789Z,92.88
2017-05-13T02:48:06.774Z,92.69
2017-05-13T02:49:06.706Z,92.59
2017-05-13T02:50:06.682Z,93.07
2017-05-13T02:51:06.659Z,93.07
2017-05-13T02:52:06.639Z,93.16
2017-05-13T02:53:06.614Z,93.07
2017-05-13T02:54:06.592Z,92.88
2017-05-13T02:55:06.580Z,92.97
2017-05-13T02:56:06.553Z,93.16
2017-05-13T02:57:06.526Z,93.07
2017-05-13T02:58:06.503Z,93.16
2017-05-13T02:59:06.488Z,93.36
2017-05-13T03:00:06.462Z,93.74
2017-05-13T03:01:06.441Z,93.45
2017-05-13T03:02:06.427Z,93.45
2017-05-13T03:03:06.094Z,93.55
2017-05-13T03:04:06.377Z,93.45
2017-05-13T03:05:06.358Z,93.55
2017-05-13T03:06:06.333Z,93.74
2017-05-13T03:07:06.318Z,93.41
2017-05-13T03:08:06.289Z,93.5
2017-05-13T03:09:06.275Z,93.41
2017-05-13T03:10:06.248Z,93.55
2017-05-13T03:11:06.228Z,93.36
2017-05-13T03:12:06.216Z,93.21
2017-05-13T03:13:06.182Z,93.45
2017-05-13T03:14:06.161Z,93.74
2017-05-13T03:15:06.141Z,93.79
2017-05-13T03:16:06.122Z,93.93
2017-05-13T03:17:06.147Z,93.5
2017-05-13T03:18:06.077Z,93.84
2017-05-13T03:19:06.053Z,93.79
2017-05-13T03:20:06.041Z,93.45
2017-05-13T03:21:06.014Z,93.31
2017-05-13T03:22:05.994Z,93.26
2017-05-13T03:23:05.976Z,93.7
2017-05-13T03:24:05.946Z,93.26
2017-05-13T03:25:05.924Z,92.88
2017-05-13T03:26:05.901Z,93.65
2017-05-13T03:27:05.887Z,93.55
2017-05-13T03:28:05.865Z,93.65
2017-05-13T03:29:05.841Z,93.26
2017-05-13T03:30:05.526Z,93.84
2017-05-13T03:31:05.796Z,93.74
2017-05-13T03:32:05.775Z,93.74
2017-05-13T03:33:05.753Z,93.74
2017-05-13T03:34:05.735Z,93.74
2017-05-13T03:35:05.714Z,92.97
2017-05-13T03:36:05.694Z,93.74
2017-05-13T03:37:05.675Z,93.36
2017-05-13T03:38:05.648Z,93.55
2017-05-13T03:39:05.626Z,93.45
2017-05-13T03:40:05.603Z,93.45
2017-05-13T03:41:05.587Z,92.79
2017-05-13T03:42:05.564Z,93.74
2017-05-13T03:43:05.546Z,93.55
2017-05-13T03:44:05.520Z,93.16
2017-05-13T03:45:05.496Z,93.07
2017-05-13T03:46:05.475Z,92.97
2017-05-13T03:47:05.452Z,92.88
2017-05-13T03:48:05.435Z,92.97
2017-05-13T03:49:05.416Z,93.16
2017-05-13T03:50:05.393Z,93.07
2017-05-13T03:51:05.370Z,92.88
2017-05-13T03:52:05.351Z,92.88
2017-05-13T03:53:05.326Z,92.97
2017-05-13T03:54:05.301Z,92.88
2017-05-13T03:55:05.283Z,93.07
2017-05-13T03:56:05.265Z,92.59
2017-05-13T03:57:05.289Z,92.69
2017-05-13T03:58:05.267Z,92.69
2017-05-13T03:59:05.199Z,92.97
2017-05-13T04:00:05.175Z,93.16
2017-05-13T04:01:05.154Z,92.59
2017-05-13T04:02:05.133Z,92.97
2017-05-13T04:03:05.116Z,92.4
2017-05-13T04:04:05.087Z,92.21
2017-05-13T04:05:05.067Z,92.3
2017-05-13T04:06:05.048Z,92.21
2017-05-13T04:07:05.025Z,92.3
2017-05-13T04:08:05.009Z,92.3
2017-05-13T04:09:04.988Z,92.21
2017-05-13T04:10:04.963Z,92.4
2017-05-13T04:11:04.940Z,92.3
2017-05-13T04:12:04.919Z,92.3
2017-05-13T04:13:04.897Z,92.3
2017-05-13T04:14:04.877Z,92.3
2017-05-13T04:15:04.856Z,92.5
2017-05-13T04:16:04.838Z,92.3
2017-05-13T04:17:04.811Z,92.3
2017-05-13T04:18:04.799Z,92.4
2017-05-13T04:19:04.770Z,92.11
2017-05-13T04:20:04.800Z,92.3
2017-05-13T04:21:04.724Z,92.4
2017-05-13T04:22:04.705Z,92.4
2017-05-13T04:23:04.685Z,92.3
2017-05-13T04:24:04.660Z,92.4
2017-05-13T04:25:04.637Z,92.69
2017-05-13T04:26:04.621Z,92.3
2017-05-13T04:27:04.599Z,92.4
2017-05-13T04:28:04.577Z,92.4
2017-05-13T04:29:04.558Z,91.93
2017-05-13T04:30:04.532Z,92.11
2017-05-13T04:31:04.512Z,92.07
2017-05-13T04:32:04.492Z,92.07
2017-05-13T04:33:04.471Z,92.25
2017-05-13T04:34:04.453Z,91.97
2017-05-13T04:35:04.431Z,92.07
2017-05-13T04:36:04.407Z,92.16
2017-05-13T04:37:04.390Z,91.88
2017-05-13T04:38:04.363Z,92.25
2017-05-13T04:39:04.349Z,92.16
2017-05-13T04:40:04.324Z,91.39
2017-05-13T04:41:04.297Z,91.39
2017-05-13T04:42:04.284Z,91.39
2017-05-13T04:43:04.257Z,91.68
2017-05-13T04:44:04.242Z,91.11
2017-05-13T04:45:03.919Z,91.2
2017-05-13T04:46:04.189Z,91.2
2017-05-13T04:47:04.176Z,91.2
2017-05-13T04:48:04.150Z,91.02
2017-05-13T04:49:04.136Z,91.2
2017-05-13T04:50:04.115Z,91.3
2017-05-13T04:51:04.142Z,91.3
2017-05-13T04:52:04.069Z,91.2
2017-05-13T04:53:04.049Z,91.11
2017-05-13T04:54:04.033Z,91.11
2017-05-13T04:55:04.003Z,90.53
2017-05-13T04:56:03.994Z,90.82
2017-05-13T04:57:04.023Z,90.82
2017-05-13T04:58:03.940Z,90.82
2017-05-13T04:59:04.224Z,90.82
2017-05-13T05:00:03.927Z,90.82
2017-05-13T05:01:03.875Z,90.82
2017-05-13T05:02:03.860Z,91.02
2017-05-13T05:03:03.840Z,91.11
2017-05-13T05:04:03.827Z,90.96
2017-05-13T05:05:03.791Z,90.58
2017-05-13T05:06:03.771Z,90.48
2017-05-13T05:07:03.748Z,90.58
2017-05-13T05:08:03.731Z,90.3
2017-05-13T05:09:03.726Z,90.3
2017-05-13T05:10:03.690Z,90.58
2017-05-13T05:11:03.677Z,90.48
2017-05-13T05:12:03.644Z,90.48
2017-05-13T05:13:03.626Z,89.62
2017-05-13T05:14:03.605Z,89.91
2017-05-13T05:15:03.835Z,89.91
2017-05-13T05:16:03.568Z,90.1
2017-05-13T05:17:03.549Z,89.91
2017-05-13T05:18:03.523Z,89.81
2017-05-13T05:19:03.499Z,89.72
2017-05-13T05:20:03.506Z,90.01
2017-05-13T05:21:03.465Z,89.81
2017-05-13T05:22:03.440Z,89.91
2017-05-13T05:23:03.416Z,89.53
2017-05-13T05:24:03.412Z,89.62
2017-05-13T05:25:03.378Z,89.62
2017-05-13T05:26:03.356Z,89.72
2017-05-13T05:27:03.330Z,89.53
2017-05-13T05:28:03.316Z,89.15
2017-05-13T05:29:03.293Z,88.95
2017-05-13T05:30:03.281Z,89.38
2017-05-13T05:31:03.253Z,89.15
2017-05-13T05:32:03.232Z,89.34
2017-05-13T05:33:03.209Z,89.24
2017-05-13T05:34:03.190Z,89.05
2017-05-13T05:35:03.172Z,89.43
2017-05-13T05:36:03.151Z,89.09
2017-05-13T05:37:03.133Z,89.29
2017-05-13T05:38:03.112Z,89.29
2017-05-13T05:39:03.091Z,89.09
2017-05-13T05:40:03.069Z,89.58
2017-05-13T05:41:03.104Z,89.38
2017-05-13T05:42:03.273Z,89.48
2017-05-13T05:43:03.006Z,89.38
2017-05-13T05:44:02.685Z,89.38
2017-05-13T05:45:02.962Z,89.38
2017-05-13T05:46:02.945Z,88.9
2017-05-13T05:47:02.919Z,88.71
2017-05-13T05:48:02.902Z,88.62
2017-05-13T05:49:02.879Z,89.48
2017-05-13T05:50:02.857Z,88.9
2017-05-13T05:51:02.836Z,88.52
2017-05-13T05:52:02.822Z,88.9
2017-05-13T05:53:02.794Z,88.9
2017-05-13T05:54:02.783Z,89.19
2017-05-13T05:55:02.756Z,89.09
2017-05-13T05:56:02.730Z,89.09
2017-05-13T05:57:02.717Z,89
2017-05-13T05:58:02.694Z,89.14
2017-05-13T05:59:02.675Z,88.76
2017-05-13T06:00:02.653Z,88.66
2017-05-13T06:01:02.634Z,88.47
2017-05-13T06:02:02.615Z,88.37
2017-05-13T06:03:02.597Z,88.76
2017-05-13T06:04:02.574Z,88.28
2017-05-13T06:05:02.566Z,87.99
2017-05-13T06:06:02.532Z,87.99
2017-05-13T06:07:02.509Z,87.8
2017-05-13T06:08:02.494Z,87.7
2017-05-13T06:09:02.465Z,87.7
2017-05-13T06:10:02.445Z,87.8
2017-05-13T06:11:02.428Z,87.61
2017-05-13T06:12:02.408Z,87.23
2017-05-13T06:13:02.388Z,87.13
2017-05-13T06:14:02.371Z,87.32
2017-05-13T06:15:02.349Z,86.94
2017-05-13T06:16:02.323Z,87.32
2017-05-13T06:17:02.300Z,87.13
2017-05-13T06:18:02.284Z,87.13
2017-05-13T06:19:02.266Z,86.88
2017-05-13T06:20:02.247Z,86.94
2017-05-13T06:21:02.226Z,86.41
2017-05-13T06:22:02.206Z,86.12
2017-05-13T06:23:02.189Z,86.21
2017-05-13T06:24:01.860Z,86.12
2017-05-13T06:25:02.150Z,86.12
2017-05-13T06:26:02.125Z,86.31
2017-05-13T06:27:02.107Z,86.12
2017-05-13T06:28:02.086Z,86.6
2017-05-13T06:29:02.056Z,85.74
2017-05-13T06:30:02.040Z,85.93
2017-05-13T06:31:01.722Z,85.74
2017-05-13T06:32:02.005Z,85.74
2017-05-13T06:33:01.981Z,85.54
2017-05-13T06:34:01.959Z,85.35
2017-05-13T06:35:01.637Z,85.45
2017-05-13T06:36:01.961Z,85.35
2017-05-13T06:37:01.900Z,85.06
2017-05-13T06:38:01.879Z,85.01
2017-05-13T06:39:01.911Z,85.01
2017-05-13T06:40:01.835Z,84.97
2017-05-13T06:41:01.818Z,85.01
2017-05-13T06:42:01.798Z,85.39
2017-05-13T06:43:01.781Z,85.3
2017-05-13T06:44:01.760Z,85.01
2017-05-13T06:45:01.738Z,85.39
2017-05-13T06:46:01.719Z,85.01
2017-05-13T06:47:01.702Z,84.91
2017-05-13T06:48:01.679Z,84.72
2017-05-13T06:49:01.658Z,84.91
2017-05-13T06:50:01.639Z,84.63
2017-05-13T06:51:01.623Z,84.63
2017-05-13T06:52:01.608Z,84.63
2017-05-13T06:53:01.583Z,84.53
2017-05-13T06:54:01.562Z,84.63
2017-05-13T06:55:01.545Z,84.53
2017-05-13T06:56:01.525Z,84.38
2017-05-13T06:57:01.501Z,84.48
2017-05-13T06:58:01.484Z,84.58
2017-05-13T06:59:01.460Z,83.91
2017-05-13T07:00:01.445Z,83.91
2017-05-13T07:01:01.426Z,83.91
2017-05-13T07:02:01.403Z,84.19
2017-05-13T07:03:01.385Z,83.81
2017-05-13T07:04:01.370Z,83.91
2017-05-13T07:05:01.395Z,83.81
2017-05-13T07:06:01.328Z,83.91
2017-05-13T07:07:01.004Z,83.61
2017-05-13T07:08:01.287Z,84
2017-05-13T07:09:01.265Z,83.81
2017-05-13T07:10:01.250Z,83.81
2017-05-13T07:11:01.227Z,83.91
2017-05-13T07:12:01.206Z,83.42
2017-05-13T07:13:01.186Z,83.61
2017-05-13T07:14:01.169Z,83.52
2017-05-13T07:15:01.154Z,83.33
2017-05-13T07:16:01.127Z,83.42
2017-05-13T07:17:01.114Z,83.14
2017-05-13T07:18:01.098Z,83.42
2017-05-13T07:19:01.071Z,83.52
2017-05-13T07:20:01.052Z,83.42
2017-05-13T07:21:01.041Z,82.98
2017-05-13T07:22:01.022Z,83.27
2017-05-13T07:23:00.997Z,83.18
2017-05-13T07:24:00.975Z,82.89
2017-05-13T07:25:00.954Z,83.08
2017-05-13T07:26:00.937Z,82.98
2017-05-13T07:27:00.916Z,82.89
2017-05-13T07:28:00.895Z,82.51
2017-05-13T07:29:00.879Z,82.51
2017-05-13T07:30:00.904Z,82.6
2017-05-13T07:31:00.842Z,82.79
2017-05-13T07:32:00.818Z,82.6
2017-05-13T07:33:00.801Z,82.6
2017-05-13T07:34:00.785Z,82.6
2017-05-13T07:35:00.763Z,82.45
2017-05-13T07:36:00.742Z,82.03
2017-05-13T07:37:00.429Z,82.07
2017-05-13T07:38:00.700Z,81.59
2017-05-13T07:39:00.683Z,81.59
2017-05-13T07:40:00.665Z,81.93
2017-05-13T07:41:00.641Z,81.74
2017-05-13T07:42:00.625Z,81.74
2017-05-13T07:43:00.610Z,81.68
2017-05-13T07:44:00.591Z,81.68
2017-05-13T07:45:00.571Z,81.68
2017-05-13T07:46:00.556Z,81.54
2017-05-13T07:47:00.538Z,81.93
2017-05-13T07:48:00.515Z,82.07
2017-05-13T07:49:00.491Z,82.26
2017-05-13T07:50:00.465Z,81.93
2017-05-13T07:51:00.456Z,82.26
2017-05-13T07:52:00.436Z,82.41
2017-05-13T07:53:00.415Z,82.35
2017-05-13T07:54:00.396Z,82.54
2017-05-13T07:55:00.383Z,82.35
2017-05-13T07:56:00.359Z,82.45
2017-05-13T07:57:00.341Z,82.45
2017-05-13T07:58:00.313Z,82.26
2017-05-13T07:58:59.998Z,82.31
2017-05-13T08:00:00.279Z,82.16
2017-05-13T08:01:00.259Z,82.16
2017-05-13T08:02:00.254Z,82.35
2017-05-13T08:03:00.224Z,82.64
2017-05-13T08:04:00.200Z,82.45
2017-05-13T08:05:00.186Z,82.7
2017-05-13T08:06:00.161Z,82.16
2017-05-13T08:07:00.143Z,82.45
2017-05-13T08:08:00.124Z,82.45
2017-05-13T08:09:00.104Z,81.97
2017-05-13T08:10:00.083Z,82.45
2017-05-13T08:11:00.066Z,82.16
2017-05-13T08:12:00.042Z,81.78
2017-05-13T08:12:59.778Z,81.68
2017-05-13T08:14:00.008Z,81.63
2017-05-13T08:14:59.998Z,81.34
2017-05-13T08:15:59.982Z,81.2
2017-05-13T08:16:59.969Z,81.53
2017-05-13T08:17:59.948Z,80.76
2017-05-13T08:18:59.921Z,81.15
2017-05-13T08:19:59.945Z,80.76
2017-05-13T08:20:59.886Z,80.66
2017-05-13T08:21:59.866Z,80.47
2017-05-13T08:22:59.847Z,80.47
2017-05-13T08:23:59.826Z,80.57
2017-05-13T08:24:59.800Z,79.9
2017-05-13T08:25:59.787Z,79.9
2017-05-13T08:26:59.780Z,80.13
2017-05-13T08:27:59.744Z,79.84
2017-05-13T08:28:59.432Z,79.84
2017-05-13T08:29:59.717Z,79.55
2017-05-13T08:30:59.692Z,78.78
2017-05-13T08:31:59.975Z,79.27
2017-05-13T08:32:59.652Z,78.69
2017-05-13T08:33:59.634Z,78.5
2017-05-13T08:34:59.625Z,78.11
2017-05-13T08:35:59.598Z,78.11
2017-05-13T08:36:59.574Z,78.21
2017-05-13T08:37:59.559Z,79.07
2017-05-13T08:38:59.545Z,78.02
2017-05-13T08:39:59.531Z,78.11
2017-05-13T08:40:59.504Z,78.02
2017-05-13T08:41:59.479Z,77.83
2017-05-13T08:42:59.468Z,77.92
2017-05-13T08:43:59.450Z,77.53
2017-05-13T08:44:59.433Z,77.53
2017-05-13T08:45:59.413Z,77.73
2017-05-13T08:46:59.401Z,77.09
2017-05-13T08:47:59.071Z,77.29
2017-05-13T08:48:59.360Z,76.52
2017-05-13T08:49:59.346Z,76.9
2017-05-13T08:50:59.320Z,76.81
2017-05-13T08:51:59.300Z,76.26
2017-05-13T08:52:59.292Z,75.79
2017-05-13T08:53:59.267Z,75.98
2017-05-13T08:54:59.248Z,75.63
2017-05-13T08:55:59.237Z,75.05
2017-05-13T08:56:59.216Z,75.24
2017-05-13T08:57:59.194Z,74.29
2017-05-13T08:58:59.187Z,74.29
2017-05-13T08:59:59.162Z,74.38
2017-05-13T09:00:59.145Z,74.48
2017-05-13T09:01:59.121Z,73.84
2017-05-13T09:02:59.117Z,73.51
2017-05-13T09:03:59.138Z,74.61
2017-05-13T09:04:59.079Z,74.22
2017-05-13T09:05:59.066Z,73.84
2017-05-13T09:06:58.750Z,73.55
2017-05-13T09:07:59.019Z,73.55
2017-05-13T09:08:59.005Z,73.26
2017-05-13T09:09:58.696Z,72.78
2017-05-13T09:10:58.980Z,72.33
2017-05-13T09:11:58.966Z,72.2
2017-05-13T09:12:58.938Z,71.95
2017-05-13T09:13:58.927Z,71.81
2017-05-13T09:14:58.942Z,71.37
2017-05-13T09:15:58.893Z,71.56
2017-05-13T09:16:58.879Z,71.37
2017-05-13T09:17:58.857Z,71.56
2017-05-13T09:18:58.852Z,71.18
2017-05-13T09:19:58.824Z,70.54
2017-05-13T09:20:58.801Z,70.54
2017-05-13T09:21:58.795Z,70.28
2017-05-13T09:22:58.779Z,69.61
2017-05-13T09:23:58.759Z,69.71
2017-05-13T09:24:58.744Z,69.45
2017-05-13T09:25:58.725Z,68.33
2017-05-13T09:26:58.710Z,67.55
2017-05-13T09:27:58.699Z,67.11
2017-05-13T09:28:58.689Z,66.24
2017-05-13T09:29:58.663Z,65.01
2017-05-13T09:30:58.655Z,64.72
2017-05-13T09:31:58.640Z,64.34
2017-05-13T09:32:58.624Z,64.05
2017-05-13T09:33:58.659Z,64.05
2017-05-13T09:34:58.601Z,63.76
2017-05-13T09:35:58.577Z,63.6
2017-05-13T09:36:58.577Z,63.34
2017-05-13T09:37:58.548Z,62.76
2017-05-13T09:38:58.539Z,61.92
2017-05-13T09:39:58.528Z,61.63
2017-05-13T09:40:58.521Z,61.82
2017-05-13T09:41:58.199Z,61.36
2017-05-13T09:42:58.485Z,60.88
2017-05-13T09:43:58.475Z,60.59
2017-05-13T09:44:58.472Z,60.37
2017-05-13T09:45:58.151Z,60.47
2017-05-13T09:46:58.436Z,61.02
2017-05-13T09:47:58.127Z,60.24
2017-05-13T09:48:58.460Z,60.82
2017-05-13T09:49:58.446Z,61.27
2017-05-13T09:50:58.087Z,61.25
2017-05-13T09:51:58.373Z,61.44
2017-05-13T09:52:58.363Z,62.7
2017-05-13T09:53:58.345Z,62.57
2017-05-13T09:54:58.338Z,62.57
2017-05-13T09:55:58.323Z,63.05
2017-05-13T09:56:58.302Z,62.86
2017-05-13T09:57:58.286Z,63.24
2017-05-13T09:58:58.281Z,62.79
2017-05-13T09:59:58.260Z,61.92
2017-05-13T10:00:58.302Z,62.24
2017-05-13T10:01:58.235Z,61.6
2017-05-13T10:02:58.221Z,60.27
2017-05-13T10:03:58.207Z,59.14
2017-05-13T10:04:58.191Z,58.3
2017-05-13T10:05:58.183Z,57.71
2017-05-13T10:06:58.169Z,58.3
2017-05-13T10:07:58.158Z,58.17
2017-05-13T10:08:58.153Z,58.37
2017-05-13T10:09:58.144Z,58.63
2017-05-13T10:10:58.123Z,59.01
2017-05-13T10:11:58.118Z,59.38
2017-05-13T10:12:58.097Z,60.11
2017-05-13T10:13:58.080Z,60.76
2017-05-13T10:14:58.064Z,61.31
2017-05-13T10:15:58.058Z,61.41
2017-05-13T10:16:58.039Z,62.15
2017-05-13T10:17:58.028Z,62.63
2017-05-13T10:18:58.009Z,63.37
2017-05-13T10:19:57.999Z,63.57
2017-05-13T10:20:57.984Z,64.24
2017-05-13T10:21:57.967Z,64.69
2017-05-13T10:22:57.949Z,65.17
2017-05-13T10:23:57.935Z,64.79
2017-05-13T10:24:57.924Z,65.37
2017-05-13T10:25:57.907Z,65.17
2017-05-13T10:26:57.892Z,65.56
2017-05-13T10:27:57.877Z,65.47
2017-05-13T10:28:57.861Z,65.95
2017-05-13T10:29:57.854Z,66.33
2017-05-13T10:30:57.831Z,65.37
2017-05-13T10:31:57.813Z,65.53
2017-05-13T10:32:57.797Z,64.11
2017-05-13T10:33:57.783Z,62.73
2017-05-13T10:34:57.772Z,60.66
2017-05-13T10:35:57.756Z,60.01
2017-05-13T10:36:57.747Z,58.23
2017-05-13T10:37:57.979Z,55.83
2017-05-13T10:38:57.720Z,56.41
2017-05-13T10:39:57.718Z,56.49
2017-05-13T10:40:57.695Z,56.32
2017-05-13T10:41:57.692Z,55.38
2017-05-13T10:42:57.683Z,55.18
2017-05-13T10:43:57.660Z,55.18
2017-05-13T10:44:57.649Z,55.93
2017-05-13T10:45:57.642Z,56.39
2017-05-13T10:46:57.638Z,55.88
2017-05-13T10:47:57.620Z,55.88
2017-05-13T10:48:57.608Z,56.72
2017-05-13T10:49:57.611Z,56.6
2017-05-13T10:50:57.586Z,56.67
2017-05-13T10:51:57.274Z,57.05
2017-05-13T10:52:57.560Z,56.54
2017-05-13T10:53:57.547Z,57.19
2017-05-13T10:54:57.533Z,57.67
2017-05-13T10:55:57.580Z,57.77
2017-05-13T10:56:57.210Z,58.12
2017-05-13T10:57:57.490Z,57.84
2017-05-13T10:58:57.478Z,56.99
2017-05-13T10:59:57.462Z,56.54
2017-05-13T11:00:57.451Z,55.6
2017-05-13T11:01:57.495Z,54.79
2017-05-13T11:02:57.440Z,53.33
2017-05-13T11:03:57.415Z,51.9
2017-05-13T11:04:57.406Z,52.68
2017-05-13T11:05:57.392Z,53.36
2017-05-13T11:06:57.379Z,52.85
2017-05-13T11:07:57.373Z,52.95
2017-05-13T11:08:57.362Z,53.21
2017-05-13T11:09:57.350Z,52.44
2017-05-13T11:10:57.353Z,52.12
2017-05-13T11:11:57.332Z,52.97
2017-05-13T11:12:57.310Z,52.87
2017-05-13T11:13:57.300Z,52.07
2017-05-13T11:14:57.290Z,52.26
2017-05-13T11:15:57.278Z,51.87
2017-05-13T11:16:57.260Z,52.36
2017-05-13T11:17:57.298Z,52.94
2017-05-13T11:18:57.286Z,52.65
2017-05-13T11:19:57.231Z,52.81
2017-05-13T11:20:57.209Z,53.78
2017-05-13T11:21:57.230Z,53.69
2017-05-13T11:22:57.185Z,53.71
2017-05-13T11:23:57.213Z,54.77
2017-05-13T11:24:57.170Z,54.58
2017-05-13T11:25:57.135Z,54.58
2017-05-13T11:26:57.122Z,54.41
2017-05-13T11:27:57.113Z,54.22
2017-05-13T11:28:57.094Z,54.61
2017-05-13T11:29:57.080Z,54.41
2017-05-13T11:30:57.062Z,54.61
2017-05-13T11:31:57.045Z,54.71
2017-05-13T11:32:57.030Z,54.71
2017-05-13T11:33:57.011Z,54.71
2017-05-13T11:34:57.003Z,55.09
2017-05-13T11:35:57.029Z,54.9
2017-05-13T11:36:56.967Z,54.99
2017-05-13T11:37:56.955Z,55.57
2017-05-13T11:38:56.935Z,55.09
2017-05-13T11:39:56.919Z,55.55
2017-05-13T11:40:56.902Z,55.65
2017-05-13T11:41:56.894Z,55.74
2017-05-13T11:42:56.877Z,55.93
2017-05-13T11:43:56.856Z,55.81
2017-05-13T11:44:56.844Z,55.93
2017-05-13T11:45:56.826Z,56.22
2017-05-13T11:46:56.817Z,55.26
2017-05-13T11:47:56.798Z,54.49
2017-05-13T11:48:56.777Z,54.29
2017-05-13T11:49:56.761Z,54.1
2017-05-13T11:50:56.749Z,53.71
2017-05-13T11:51:56.737Z,53.61
2017-05-13T11:52:56.713Z,53.91
2017-05-13T11:53:56.698Z,53.97
2017-05-13T11:54:56.680Z,53.97
2017-05-13T11:55:56.669Z,54.1
2017-05-13T11:56:56.656Z,53.97
2017-05-13T11:57:56.637Z,53.33
2017-05-13T11:58:56.318Z,52.84
2017-05-13T11:59:56.602Z,52.53
2017-05-13T12:00:56.286Z,52.33
2017-05-13T12:01:56.318Z,52.43
2017-05-13T12:02:56.556Z,52.14
2017-05-13T12:03:56.539Z,52.33
2017-05-13T12:04:56.524Z,52.53
2017-05-13T12:05:56.503Z,52.11
2017-05-13T12:06:56.496Z,52.01
2017-05-13T12:07:56.472Z,51.73
2017-05-13T12:08:56.458Z,52.11
2017-05-13T12:09:56.440Z,52.11
2017-05-13T12:10:56.425Z,51.92
2017-05-13T12:11:56.409Z,51.82
2017-05-13T12:12:56.399Z,51.73
2017-05-13T12:13:56.382Z,51.92
2017-05-13T12:14:56.362Z,52.31
2017-05-13T12:15:56.349Z,52.14
2017-05-13T12:16:56.379Z,51.85
2017-05-13T12:17:56.321Z,52.04
2017-05-13T12:18:56.298Z,51.75
2017-05-13T12:19:56.284Z,52.04
2017-05-13T12:20:56.264Z,51.46
2017-05-13T12:21:56.254Z,52.23
2017-05-13T12:22:56.236Z,52.14
2017-05-13T12:23:56.221Z,52.23
2017-05-13T12:24:56.201Z,51.56
2017-05-13T12:25:56.187Z,51.56
2017-05-13T12:26:56.168Z,51.29
2017-05-13T12:27:56.159Z,51.29
2017-05-13T12:28:56.181Z,51.01
2017-05-13T12:29:56.118Z,50.62
2017-05-13T12:30:56.109Z,50.43
2017-05-13T12:31:55.799Z,50.74
2017-05-13T12:32:55.786Z,51.03
2017-05-13T12:33:56.057Z,51.03
2017-05-13T12:34:56.043Z,50.28
2017-05-13T12:35:56.027Z,50.35
2017-05-13T12:36:56.013Z,50.16
2017-05-13T12:37:55.693Z,50.35
2017-05-13T12:38:55.984Z,50.65
2017-05-13T12:39:56.016Z,50.65
2017-05-13T12:40:55.952Z,50.65
2017-05-13T12:41:55.929Z,50.93
2017-05-13T12:42:55.917Z,50.55
2017-05-13T12:43:55.906Z,51.03
2017-05-13T12:44:55.884Z,50.33
2017-05-13T12:45:55.867Z,50.91
2017-05-13T12:46:55.857Z,50.62
2017-05-13T12:47:55.840Z,51.39
2017-05-13T12:48:55.822Z,50.71
2017-05-13T12:49:55.807Z,51.2
2017-05-13T12:50:55.793Z,51.49
2017-05-13T12:51:55.778Z,51.29
2017-05-13T12:52:55.759Z,51.49
2017-05-13T12:53:55.754Z,51.49
2017-05-13T12:54:55.727Z,50.52
2017-05-13T12:55:55.712Z,50.71